sensor_id;sensor_type;location;lat;lon;timestamp;P1;durP1;ratioP1;P2;durP2;ratioP2
31692;SDS011;37436;53.230;6.614;2023-02-05T00:00:04;14.00;;;7.00;;
31692;SDS011;37436;53.230;6.614;2023-02-05T00:02:30;12.02;;;6.68;;
31692;SDS011;37436;53.230;6.614;2023-02-05T00:05:00;15.05;;;7.13;;
31692;SDS011;37436;53.230;6.614;2023-02-05T00:07:26;10.40;;;6.82;;
31692;SDS011;37436;53.230;6.614;2023-02-05T00:09:52;13.63;;;7.03;;
31692;SDS011;37436;53.230;6.614;2023-02-05T00:12:18;14.38;;;7.53;;
31692;SDS011;37436;53.230;6.614;2023-02-05T00:14:44;14.38;;;7.45;;
31692;SDS011;37436;53.230;6.614;2023-02-05T00:17:11;11.80;;;6.55;;
31692;SDS011;37436;53.230;6.614;2023-02-05T00:19:37;14.15;;;7.20;;
31692;SDS011;37436;53.230;6.614;2023-02-05T00:22:04;15.05;;;7.30;;
31692;SDS011;37436;53.230;6.614;2023-02-05T00:24:33;12.20;;;6.82;;
31692;SDS011;37436;53.230;6.614;2023-02-05T00:27:03;17.90;;;7.13;;
31692;SDS011;37436;53.230;6.614;2023-02-05T00:29:34;13.68;;;7.38;;
31692;SDS011;37436;53.230;6.614;2023-02-05T00:32:06;13.48;;;6.68;;
31692;SDS011;37436;53.230;6.614;2023-02-05T00:34:32;16.02;;;7.65;;
31692;SDS011;37436;53.230;6.614;2023-02-05T00:36:58;13.80;;;6.80;;
31692;SDS011;37436;53.230;6.614;2023-02-05T00:39:24;12.73;;;7.00;;
31692;SDS011;37436;53.230;6.614;2023-02-05T00:41:51;13.43;;;7.57;;
31692;SDS011;37436;53.230;6.614;2023-02-05T00:44:17;15.30;;;7.40;;
31692;SDS011;37436;53.230;6.614;2023-02-05T00:46:43;13.00;;;6.93;;
31692;SDS011;37436;53.230;6.614;2023-02-05T00:49:09;14.48;;;6.80;;
31692;SDS011;37436;53.230;6.614;2023-02-05T00:51:35;13.23;;;6.45;;
31692;SDS011;37436;53.230;6.614;2023-02-05T00:54:04;19.98;;;6.68;;
31692;SDS011;37436;53.230;6.614;2023-02-05T00:56:37;15.50;;;7.18;;
31692;SDS011;37436;53.230;6.614;2023-02-05T00:59:03;23.13;;;6.47;;
31692;SDS011;37436;53.230;6.614;2023-02-05T01:01:36;13.35;;;6.53;;
31692;SDS011;37436;53.230;6.614;2023-02-05T01:04:02;17.17;;;6.75;;
31692;SDS011;37436;53.230;6.614;2023-02-05T01:06:28;22.50;;;7.88;;
31692;SDS011;37436;53.230;6.614;2023-02-05T01:08:54;16.58;;;7.70;;
31692;SDS011;37436;53.230;6.614;2023-02-05T01:11:20;16.13;;;7.57;;
31692;SDS011;37436;53.230;6.614;2023-02-05T01:13:48;22.92;;;8.15;;
31692;SDS011;37436;53.230;6.614;2023-02-05T01:16:20;19.42;;;6.85;;
31692;SDS011;37436;53.230;6.614;2023-02-05T01:19:04;19.33;;;7.40;;
31692;SDS011;37436;53.230;6.614;2023-02-05T01:21:30;20.42;;;7.70;;
31692;SDS011;37436;53.230;6.614;2023-02-05T01:24:00;21.88;;;6.65;;
31692;SDS011;37436;53.230;6.614;2023-02-05T01:26:32;20.92;;;7.60;;
31692;SDS011;37436;53.230;6.614;2023-02-05T01:29:04;14.93;;;7.60;;
31692;SDS011;37436;53.230;6.614;2023-02-05T01:31:30;19.83;;;8.65;;
31692;SDS011;37436;53.230;6.614;2023-02-05T01:34:15;19.70;;;7.57;;
31692;SDS011;37436;53.230;6.614;2023-02-05T01:36:44;19.52;;;8.60;;
31692;SDS011;37436;53.230;6.614;2023-02-05T01:39:11;22.70;;;8.65;;
31692;SDS011;37436;53.230;6.614;2023-02-05T01:44:28;23.42;;;8.38;;
31692;SDS011;37436;53.230;6.614;2023-02-05T01:46:55;25.77;;;9.23;;
31692;SDS011;37436;53.230;6.614;2023-02-05T01:49:34;34.03;;;12.57;;
31692;SDS011;37436;53.230;6.614;2023-02-05T01:52:02;29.40;;;10.43;;
31692;SDS011;37436;53.230;6.614;2023-02-05T01:54:30;20.20;;;11.13;;
31692;SDS011;37436;53.230;6.614;2023-02-05T01:57:02;25.27;;;12.00;;
31692;SDS011;37436;53.230;6.614;2023-02-05T01:59:31;22.75;;;11.43;;
31692;SDS011;37436;53.230;6.614;2023-02-05T02:01:58;32.03;;;11.57;;
31692;SDS011;37436;53.230;6.614;2023-02-05T02:04:29;18.25;;;10.35;;
31692;SDS011;37436;53.230;6.614;2023-02-05T02:06:59;24.85;;;10.38;;
31692;SDS011;37436;53.230;6.614;2023-02-05T02:09:25;19.17;;;9.88;;
31692;SDS011;37436;53.230;6.614;2023-02-05T02:11:51;27.38;;;9.95;;
31692;SDS011;37436;53.230;6.614;2023-02-05T02:14:17;23.88;;;9.55;;
31692;SDS011;37436;53.230;6.614;2023-02-05T02:16:44;17.10;;;8.35;;
31692;SDS011;37436;53.230;6.614;2023-02-05T02:19:16;24.33;;;8.30;;
31692;SDS011;37436;53.230;6.614;2023-02-05T02:22:08;30.30;;;8.40;;
31692;SDS011;37436;53.230;6.614;2023-02-05T02:32:39;29.73;;;8.82;;
31692;SDS011;37436;53.230;6.614;2023-02-05T02:37:34;27.92;;;9.52;;
31692;SDS011;37436;53.230;6.614;2023-02-05T02:40:21;24.67;;;7.88;;
31692;SDS011;37436;53.230;6.614;2023-02-05T02:45:25;24.83;;;8.85;;
31692;SDS011;37436;53.230;6.614;2023-02-05T02:48:11;26.60;;;8.65;;
31692;SDS011;37436;53.230;6.614;2023-02-05T02:50:39;24.23;;;8.65;;
31692;SDS011;37436;53.230;6.614;2023-02-05T02:53:28;34.15;;;10.93;;
31692;SDS011;37436;53.230;6.614;2023-02-05T02:55:55;35.25;;;10.10;;
31692;SDS011;37436;53.230;6.614;2023-02-05T02:58:24;30.15;;;9.85;;
31692;SDS011;37436;53.230;6.614;2023-02-05T03:00:52;32.40;;;9.02;;
31692;SDS011;37436;53.230;6.614;2023-02-05T03:03:25;27.10;;;10.18;;
31692;SDS011;37436;53.230;6.614;2023-02-05T03:05:55;30.48;;;10.45;;
31692;SDS011;37436;53.230;6.614;2023-02-05T03:08:30;34.08;;;10.48;;
31692;SDS011;37436;53.230;6.614;2023-02-05T03:11:00;33.92;;;10.00;;
31692;SDS011;37436;53.230;6.614;2023-02-05T03:13:26;30.08;;;10.27;;
31692;SDS011;37436;53.230;6.614;2023-02-05T03:15:53;35.67;;;9.73;;
31692;SDS011;37436;53.230;6.614;2023-02-05T03:18:19;33.92;;;10.98;;
31692;SDS011;37436;53.230;6.614;2023-02-05T03:20:53;28.05;;;10.02;;
31692;SDS011;37436;53.230;6.614;2023-02-05T03:23:20;28.65;;;10.75;;
31692;SDS011;37436;53.230;6.614;2023-02-05T03:25:47;29.23;;;10.77;;
31692;SDS011;37436;53.230;6.614;2023-02-05T03:28:16;36.28;;;11.00;;
31692;SDS011;37436;53.230;6.614;2023-02-05T03:38:50;43.20;;;11.35;;
31692;SDS011;37436;53.230;6.614;2023-02-05T03:44:24;38.35;;;11.85;;
31692;SDS011;37436;53.230;6.614;2023-02-05T03:46:57;39.65;;;12.23;;
31692;SDS011;37436;53.230;6.614;2023-02-05T03:57:03;41.33;;;11.88;;
31692;SDS011;37436;53.230;6.614;2023-02-05T03:59:33;42.22;;;12.65;;
31692;SDS011;37436;53.230;6.614;2023-02-05T04:02:00;34.78;;;12.18;;
31692;SDS011;37436;53.230;6.614;2023-02-05T04:04:30;37.17;;;11.25;;
31692;SDS011;37436;53.230;6.614;2023-02-05T04:06:58;38.47;;;12.80;;
31692;SDS011;37436;53.230;6.614;2023-02-05T04:09:24;50.67;;;13.18;;
31692;SDS011;37436;53.230;6.614;2023-02-05T04:11:50;36.67;;;12.52;;
31692;SDS011;37436;53.230;6.614;2023-02-05T04:14:17;47.88;;;13.77;;
31692;SDS011;37436;53.230;6.614;2023-02-05T04:16:45;47.58;;;13.40;;
31692;SDS011;37436;53.230;6.614;2023-02-05T04:19:17;47.35;;;13.70;;
31692;SDS011;37436;53.230;6.614;2023-02-05T04:21:43;38.65;;;13.63;;
31692;SDS011;37436;53.230;6.614;2023-02-05T04:24:09;49.38;;;12.70;;
31692;SDS011;37436;53.230;6.614;2023-02-05T04:26:43;42.28;;;12.50;;
31692;SDS011;37436;53.230;6.614;2023-02-05T04:29:09;40.92;;;12.23;;
31692;SDS011;37436;53.230;6.614;2023-02-05T04:31:36;48.65;;;14.70;;
31692;SDS011;37436;53.230;6.614;2023-02-05T04:34:02;52.58;;;13.75;;
31692;SDS011;37436;53.230;6.614;2023-02-05T04:36:28;44.05;;;13.30;;
31692;SDS011;37436;53.230;6.614;2023-02-05T04:38:54;46.10;;;15.02;;
31692;SDS011;37436;53.230;6.614;2023-02-05T04:41:21;46.72;;;13.20;;
31692;SDS011;37436;53.230;6.614;2023-02-05T04:43:47;52.58;;;15.20;;
31692;SDS011;37436;53.230;6.614;2023-02-05T04:46:13;42.28;;;13.70;;
31692;SDS011;37436;53.230;6.614;2023-02-05T04:48:39;51.92;;;13.73;;
31692;SDS011;37436;53.230;6.614;2023-02-05T04:51:07;58.15;;;15.68;;
31692;SDS011;37436;53.230;6.614;2023-02-05T04:53:39;58.65;;;14.18;;
31692;SDS011;37436;53.230;6.614;2023-02-05T04:56:14;47.95;;;13.65;;
31692;SDS011;37436;53.230;6.614;2023-02-05T04:58:50;43.35;;;13.35;;
31692;SDS011;37436;53.230;6.614;2023-02-05T05:01:28;36.38;;;12.30;;
31692;SDS011;37436;53.230;6.614;2023-02-05T05:04:11;54.77;;;14.70;;
31692;SDS011;37436;53.230;6.614;2023-02-05T05:06:43;58.00;;;13.30;;
31692;SDS011;37436;53.230;6.614;2023-02-05T05:09:23;42.95;;;14.00;;
31692;SDS011;37436;53.230;6.614;2023-02-05T05:11:50;35.33;;;13.80;;
31692;SDS011;37436;53.230;6.614;2023-02-05T05:14:25;40.67;;;12.25;;
31692;SDS011;37436;53.230;6.614;2023-02-05T05:17:13;45.08;;;11.68;;
31692;SDS011;37436;53.230;6.614;2023-02-05T05:19:54;44.45;;;12.00;;
31692;SDS011;37436;53.230;6.614;2023-02-05T05:48:24;21.50;;;3.53;;
31692;SDS011;37436;53.230;6.614;2023-02-05T05:56:21;25.55;;;2.60;;
31692;SDS011;37436;53.230;6.614;2023-02-05T05:58:54;23.25;;;2.75;;
31692;SDS011;37436;53.230;6.614;2023-02-05T06:01:21;10.93;;;1.80;;
31692;SDS011;37436;53.230;6.614;2023-02-05T06:03:47;15.48;;;2.20;;
31692;SDS011;37436;53.230;6.614;2023-02-05T06:06:13;21.58;;;1.85;;
31692;SDS011;37436;53.230;6.614;2023-02-05T06:08:39;22.95;;;3.40;;
31692;SDS011;37436;53.230;6.614;2023-02-05T06:11:05;15.85;;;2.00;;
31692;SDS011;37436;53.230;6.614;2023-02-05T06:13:31;10.18;;;1.65;;
31692;SDS011;37436;53.230;6.614;2023-02-05T06:16:02;27.60;;;2.28;;
31692;SDS011;37436;53.230;6.614;2023-02-05T06:18:28;12.77;;;1.63;;
31692;SDS011;37436;53.230;6.614;2023-02-05T06:20:54;10.23;;;1.92;;
31692;SDS011;37436;53.230;6.614;2023-02-05T06:23:20;25.05;;;2.17;;
31692;SDS011;37436;53.230;6.614;2023-02-05T06:25:47;13.50;;;1.75;;
31692;SDS011;37436;53.230;6.614;2023-02-05T06:28:13;14.27;;;1.85;;
31692;SDS011;37436;53.230;6.614;2023-02-05T06:30:39;20.17;;;2.03;;
31692;SDS011;37436;53.230;6.614;2023-02-05T06:33:05;21.40;;;2.03;;
31692;SDS011;37436;53.230;6.614;2023-02-05T06:35:31;15.48;;;1.40;;
31692;SDS011;37436;53.230;6.614;2023-02-05T06:37:57;19.48;;;2.13;;
31692;SDS011;37436;53.230;6.614;2023-02-05T06:40:23;12.23;;;2.28;;
31692;SDS011;37436;53.230;6.614;2023-02-05T06:42:52;22.27;;;2.88;;
31692;SDS011;37436;53.230;6.614;2023-02-05T06:45:18;7.00;;;1.70;;
31692;SDS011;37436;53.230;6.614;2023-02-05T06:47:44;16.42;;;1.77;;
31692;SDS011;37436;53.230;6.614;2023-02-05T06:50:10;21.85;;;2.38;;
31692;SDS011;37436;53.230;6.614;2023-02-05T06:52:37;18.45;;;2.38;;
31692;SDS011;37436;53.230;6.614;2023-02-05T06:55:03;17.90;;;1.90;;
31692;SDS011;37436;53.230;6.614;2023-02-05T06:57:36;20.27;;;2.15;;
31692;SDS011;37436;53.230;6.614;2023-02-05T07:00:09;26.23;;;2.25;;
31692;SDS011;37436;53.230;6.614;2023-02-05T07:02:35;14.73;;;2.03;;
31692;SDS011;37436;53.230;6.614;2023-02-05T07:05:01;23.13;;;2.63;;
31692;SDS011;37436;53.230;6.614;2023-02-05T07:07:27;26.45;;;2.70;;
31692;SDS011;37436;53.230;6.614;2023-02-05T07:09:53;23.25;;;2.83;;
31692;SDS011;37436;53.230;6.614;2023-02-05T07:12:19;20.27;;;2.05;;
31692;SDS011;37436;53.230;6.614;2023-02-05T07:14:45;10.55;;;1.70;;
31692;SDS011;37436;53.230;6.614;2023-02-05T07:17:12;23.63;;;2.90;;
31692;SDS011;37436;53.230;6.614;2023-02-05T07:19:38;35.67;;;2.72;;
31692;SDS011;37436;53.230;6.614;2023-02-05T07:22:04;26.00;;;3.33;;
31692;SDS011;37436;53.230;6.614;2023-02-05T07:24:30;22.48;;;2.30;;
31692;SDS011;37436;53.230;6.614;2023-02-05T07:26:56;26.05;;;2.20;;
31692;SDS011;37436;53.230;6.614;2023-02-05T07:29:23;24.98;;;2.92;;
31692;SDS011;37436;53.230;6.614;2023-02-05T07:31:49;21.67;;;2.80;;
31692;SDS011;37436;53.230;6.614;2023-02-05T07:34:15;18.50;;;2.97;;
31692;SDS011;37436;53.230;6.614;2023-02-05T07:36:41;22.70;;;2.47;;
31692;SDS011;37436;53.230;6.614;2023-02-05T07:39:07;17.77;;;2.20;;
31692;SDS011;37436;53.230;6.614;2023-02-05T07:41:33;26.65;;;3.10;;
31692;SDS011;37436;53.230;6.614;2023-02-05T07:44:00;12.85;;;2.35;;
31692;SDS011;37436;53.230;6.614;2023-02-05T07:46:26;26.95;;;3.28;;
31692;SDS011;37436;53.230;6.614;2023-02-05T07:48:53;19.67;;;2.75;;
31692;SDS011;37436;53.230;6.614;2023-02-05T07:51:20;30.08;;;3.45;;
31692;SDS011;37436;53.230;6.614;2023-02-05T07:53:47;23.75;;;2.50;;
31692;SDS011;37436;53.230;6.614;2023-02-05T07:56:13;34.08;;;3.30;;
31692;SDS011;37436;53.230;6.614;2023-02-05T07:58:39;18.95;;;2.67;;
31692;SDS011;37436;53.230;6.614;2023-02-05T08:01:06;28.42;;;3.28;;
31692;SDS011;37436;53.230;6.614;2023-02-05T08:03:32;21.33;;;3.08;;
31692;SDS011;37436;53.230;6.614;2023-02-05T08:06:02;33.85;;;3.15;;
31692;SDS011;37436;53.230;6.614;2023-02-05T08:08:29;13.77;;;2.22;;
31692;SDS011;37436;53.230;6.614;2023-02-05T08:11:00;20.73;;;2.65;;
31692;SDS011;37436;53.230;6.614;2023-02-05T08:13:26;26.85;;;2.72;;
31692;SDS011;37436;53.230;6.614;2023-02-05T08:15:52;14.20;;;2.08;;
31692;SDS011;37436;53.230;6.614;2023-02-05T08:18:21;20.75;;;3.05;;
31692;SDS011;37436;53.230;6.614;2023-02-05T08:20:52;12.25;;;2.63;;
31692;SDS011;37436;53.230;6.614;2023-02-05T08:23:18;23.20;;;4.35;;
31692;SDS011;37436;53.230;6.614;2023-02-05T08:25:45;30.90;;;2.38;;
31692;SDS011;37436;53.230;6.614;2023-02-05T08:28:11;18.80;;;2.45;;
31692;SDS011;37436;53.230;6.614;2023-02-05T08:30:37;30.25;;;2.83;;
31692;SDS011;37436;53.230;6.614;2023-02-05T08:33:03;11.88;;;1.70;;
31692;SDS011;37436;53.230;6.614;2023-02-05T08:35:33;14.60;;;2.08;;
31692;SDS011;37436;53.230;6.614;2023-02-05T08:37:59;21.50;;;1.98;;
31692;SDS011;37436;53.230;6.614;2023-02-05T08:40:25;12.02;;;1.80;;
31692;SDS011;37436;53.230;6.614;2023-02-05T08:42:51;12.60;;;1.30;;
31692;SDS011;37436;53.230;6.614;2023-02-05T08:45:21;29.95;;;2.20;;
31692;SDS011;37436;53.230;6.614;2023-02-05T08:47:47;16.75;;;1.75;;
31692;SDS011;37436;53.230;6.614;2023-02-05T08:50:14;19.45;;;2.03;;
31692;SDS011;37436;53.230;6.614;2023-02-05T08:52:40;15.18;;;2.15;;
31692;SDS011;37436;53.230;6.614;2023-02-05T08:55:08;16.23;;;2.13;;
31692;SDS011;37436;53.230;6.614;2023-02-05T08:57:34;15.45;;;2.30;;
31692;SDS011;37436;53.230;6.614;2023-02-05T09:00:00;21.25;;;2.47;;
31692;SDS011;37436;53.230;6.614;2023-02-05T09:02:26;27.17;;;2.03;;
31692;SDS011;37436;53.230;6.614;2023-02-05T09:04:53;14.75;;;2.63;;
31692;SDS011;37436;53.230;6.614;2023-02-05T09:07:19;13.02;;;1.90;;
31692;SDS011;37436;53.230;6.614;2023-02-05T09:09:45;21.52;;;2.20;;
31692;SDS011;37436;53.230;6.614;2023-02-05T09:12:11;18.13;;;2.30;;
31692;SDS011;37436;53.230;6.614;2023-02-05T09:14:37;9.35;;;1.50;;
31692;SDS011;37436;53.230;6.614;2023-02-05T09:17:04;12.15;;;1.48;;
31692;SDS011;37436;53.230;6.614;2023-02-05T09:19:34;15.05;;;1.65;;
31692;SDS011;37436;53.230;6.614;2023-02-05T09:22:01;9.02;;;1.30;;
31692;SDS011;37436;53.230;6.614;2023-02-05T09:24:27;16.00;;;1.80;;
31692;SDS011;37436;53.230;6.614;2023-02-05T09:26:53;8.98;;;1.13;;
31692;SDS011;37436;53.230;6.614;2023-02-05T09:29:22;9.95;;;1.70;;
31692;SDS011;37436;53.230;6.614;2023-02-05T09:31:52;17.20;;;1.75;;
31692;SDS011;37436;53.230;6.614;2023-02-05T09:34:21;17.50;;;1.90;;
31692;SDS011;37436;53.230;6.614;2023-02-05T09:36:47;13.18;;;2.10;;
31692;SDS011;37436;53.230;6.614;2023-02-05T09:39:13;20.67;;;2.10;;
31692;SDS011;37436;53.230;6.614;2023-02-05T09:46:41;15.43;;;2.15;;
31692;SDS011;37436;53.230;6.614;2023-02-05T09:51:45;21.23;;;2.40;;
31692;SDS011;37436;53.230;6.614;2023-02-05T09:56:43;21.92;;;2.78;;
31692;SDS011;37436;53.230;6.614;2023-02-05T09:59:24;38.50;;;2.83;;
31692;SDS011;37436;53.230;6.614;2023-02-05T10:01:58;29.08;;;3.17;;
31692;SDS011;37436;53.230;6.614;2023-02-05T10:04:28;31.15;;;2.80;;
31692;SDS011;37436;53.230;6.614;2023-02-05T10:12:15;19.13;;;3.53;;
31692;SDS011;37436;53.230;6.614;2023-02-05T10:25:38;25.90;;;4.10;;
31692;SDS011;37436;53.230;6.614;2023-02-05T10:34:01;21.13;;;2.60;;
31692;SDS011;37436;53.230;6.614;2023-02-05T10:36:30;18.88;;;3.05;;
31692;SDS011;37436;53.230;6.614;2023-02-05T10:39:00;21.80;;;3.38;;
31692;SDS011;37436;53.230;6.614;2023-02-05T10:41:43;30.58;;;3.45;;
31692;SDS011;37436;53.230;6.614;2023-02-05T10:44:19;21.27;;;3.40;;
31692;SDS011;37436;53.230;6.614;2023-02-05T10:46:48;23.15;;;2.80;;
31692;SDS011;37436;53.230;6.614;2023-02-05T10:49:30;19.83;;;3.13;;
31692;SDS011;37436;53.230;6.614;2023-02-05T10:52:14;23.95;;;4.57;;
31692;SDS011;37436;53.230;6.614;2023-02-05T10:54:43;18.98;;;3.30;;
31692;SDS011;37436;53.230;6.614;2023-02-05T10:57:14;25.60;;;3.47;;
31692;SDS011;37436;53.230;6.614;2023-02-05T10:59:54;26.10;;;3.08;;
31692;SDS011;37436;53.230;6.614;2023-02-05T11:02:37;38.22;;;4.00;;
31692;SDS011;37436;53.230;6.614;2023-02-05T11:05:23;28.50;;;5.25;;
31692;SDS011;37436;53.230;6.614;2023-02-05T11:07:51;20.25;;;4.55;;
31692;SDS011;37436;53.230;6.614;2023-02-05T11:12:49;37.33;;;4.28;;
31692;SDS011;37436;53.230;6.614;2023-02-05T11:15:18;27.92;;;5.50;;
31692;SDS011;37436;53.230;6.614;2023-02-05T11:17:57;32.97;;;5.22;;
31692;SDS011;37436;53.230;6.614;2023-02-05T11:20:27;34.88;;;4.53;;
31692;SDS011;37436;53.230;6.614;2023-02-05T11:25:52;30.30;;;5.50;;
31692;SDS011;37436;53.230;6.614;2023-02-05T11:28:20;19.50;;;4.25;;
31692;SDS011;37436;53.230;6.614;2023-02-05T11:30:48;32.55;;;4.72;;
31692;SDS011;37436;53.230;6.614;2023-02-05T11:33:25;18.42;;;4.50;;
31692;SDS011;37436;53.230;6.614;2023-02-05T11:40:55;24.90;;;3.70;;
31692;SDS011;37436;53.230;6.614;2023-02-05T11:43:26;16.95;;;4.40;;
31692;SDS011;37436;53.230;6.614;2023-02-05T11:45:52;27.95;;;4.38;;
31692;SDS011;37436;53.230;6.614;2023-02-05T11:50:52;22.60;;;4.22;;
31692;SDS011;37436;53.230;6.614;2023-02-05T11:53:27;30.45;;;5.60;;
31692;SDS011;37436;53.230;6.614;2023-02-05T11:55:54;21.83;;;4.35;;
31692;SDS011;37436;53.230;6.614;2023-02-05T11:58:28;28.17;;;4.95;;
31692;SDS011;37436;53.230;6.614;2023-02-05T12:01:02;28.27;;;5.20;;
31692;SDS011;37436;53.230;6.614;2023-02-05T12:03:36;21.50;;;5.78;;
31692;SDS011;37436;53.230;6.614;2023-02-05T12:06:10;27.33;;;4.68;;
31692;SDS011;37436;53.230;6.614;2023-02-05T12:08:50;18.45;;;4.45;;
31692;SDS011;37436;53.230;6.614;2023-02-05T12:26:34;27.65;;;4.82;;
31692;SDS011;37436;53.230;6.614;2023-02-05T12:29:07;31.60;;;4.70;;
31692;SDS011;37436;53.230;6.614;2023-02-05T12:39:46;31.33;;;4.78;;
31692;SDS011;37436;53.230;6.614;2023-02-05T12:42:32;37.03;;;4.68;;
31692;SDS011;37436;53.230;6.614;2023-02-05T12:50:32;34.95;;;4.90;;
31692;SDS011;37436;53.230;6.614;2023-02-05T12:58:01;22.98;;;3.53;;
31692;SDS011;37436;53.230;6.614;2023-02-05T13:03:30;21.77;;;3.58;;
31692;SDS011;37436;53.230;6.614;2023-02-05T13:06:05;23.35;;;4.38;;
31692;SDS011;37436;53.230;6.614;2023-02-05T13:08:56;34.43;;;5.43;;
31692;SDS011;37436;53.230;6.614;2023-02-05T13:11:34;35.30;;;4.70;;
31692;SDS011;37436;53.230;6.614;2023-02-05T13:16:39;27.33;;;4.30;;
31692;SDS011;37436;53.230;6.614;2023-02-05T13:21:54;22.65;;;3.85;;
31692;SDS011;37436;53.230;6.614;2023-02-05T13:24:49;23.02;;;4.10;;
31692;SDS011;37436;53.230;6.614;2023-02-05T13:27:37;26.23;;;4.55;;
31692;SDS011;37436;53.230;6.614;2023-02-05T13:30:24;21.08;;;3.17;;
31692;SDS011;37436;53.230;6.614;2023-02-05T13:32:53;30.52;;;4.55;;
31692;SDS011;37436;53.230;6.614;2023-02-05T13:35:21;17.70;;;3.33;;
31692;SDS011;37436;53.230;6.614;2023-02-05T13:50:38;25.05;;;4.15;;
31692;SDS011;37436;53.230;6.614;2023-02-05T13:58:49;28.92;;;4.72;;
31692;SDS011;37436;53.230;6.614;2023-02-05T14:01:28;29.52;;;4.65;;
31692;SDS011;37436;53.230;6.614;2023-02-05T14:03:59;29.65;;;5.45;;
31692;SDS011;37436;53.230;6.614;2023-02-05T14:09:00;27.23;;;5.85;;
31692;SDS011;37436;53.230;6.614;2023-02-05T14:11:27;29.45;;;5.28;;
31692;SDS011;37436;53.230;6.614;2023-02-05T14:16:41;39.00;;;4.80;;
31692;SDS011;37436;53.230;6.614;2023-02-05T14:24:00;40.95;;;6.88;;
31692;SDS011;37436;53.230;6.614;2023-02-05T14:29:45;35.78;;;6.45;;
31692;SDS011;37436;53.230;6.614;2023-02-05T14:35:35;29.88;;;5.28;;
31692;SDS011;37436;53.230;6.614;2023-02-05T14:40:22;34.90;;;6.65;;
31692;SDS011;37436;53.230;6.614;2023-02-05T14:42:50;27.08;;;4.57;;
31692;SDS011;37436;53.230;6.614;2023-02-05T14:45:21;38.45;;;5.18;;
31692;SDS011;37436;53.230;6.614;2023-02-05T14:47:51;34.88;;;5.70;;
31692;SDS011;37436;53.230;6.614;2023-02-05T14:50:19;34.30;;;6.47;;
31692;SDS011;37436;53.230;6.614;2023-02-05T14:53:05;40.00;;;5.90;;
31692;SDS011;37436;53.230;6.614;2023-02-05T14:55:39;35.72;;;5.65;;
31692;SDS011;37436;53.230;6.614;2023-02-05T14:58:20;34.85;;;6.18;;
31692;SDS011;37436;53.230;6.614;2023-02-05T15:00:47;38.15;;;5.57;;
31692;SDS011;37436;53.230;6.614;2023-02-05T15:03:30;37.65;;;6.00;;
31692;SDS011;37436;53.230;6.614;2023-02-05T15:21:16;33.17;;;4.72;;
31692;SDS011;37436;53.230;6.614;2023-02-05T15:23:55;29.35;;;6.07;;
31692;SDS011;37436;53.230;6.614;2023-02-05T15:26:39;46.15;;;6.35;;
31692;SDS011;37436;53.230;6.614;2023-02-05T15:43:59;40.67;;;6.72;;
31692;SDS011;37436;53.230;6.614;2023-02-05T15:46:36;63.00;;;6.70;;
31692;SDS011;37436;53.230;6.614;2023-02-05T15:52:32;58.28;;;7.07;;
31692;SDS011;37436;53.230;6.614;2023-02-05T16:11:00;35.05;;;5.93;;
31692;SDS011;37436;53.230;6.614;2023-02-05T16:23:49;35.17;;;5.78;;
31692;SDS011;37436;53.230;6.614;2023-02-05T16:32:35;47.17;;;6.53;;
31692;SDS011;37436;53.230;6.614;2023-02-05T16:47:14;45.15;;;5.20;;
31692;SDS011;37436;53.230;6.614;2023-02-05T16:49:57;40.97;;;5.13;;
31692;SDS011;37436;53.230;6.614;2023-02-05T16:52:34;37.42;;;4.90;;
31692;SDS011;37436;53.230;6.614;2023-02-05T16:55:37;45.95;;;5.90;;
31692;SDS011;37436;53.230;6.614;2023-02-05T16:57:49;44.38;;;5.60;;
31692;SDS011;37436;53.230;6.614;2023-02-05T17:00:25;42.13;;;5.47;;
31692;SDS011;37436;53.230;6.614;2023-02-05T17:02:54;48.70;;;5.22;;
31692;SDS011;37436;53.230;6.614;2023-02-05T17:05:22;37.22;;;5.22;;
31692;SDS011;37436;53.230;6.614;2023-02-05T17:07:59;51.85;;;6.32;;
31692;SDS011;37436;53.230;6.614;2023-02-05T17:10:26;37.20;;;5.53;;
31692;SDS011;37436;53.230;6.614;2023-02-05T17:12:57;40.60;;;6.05;;
31692;SDS011;37436;53.230;6.614;2023-02-05T17:15:30;33.55;;;5.07;;
31692;SDS011;37436;53.230;6.614;2023-02-05T17:17:57;39.70;;;5.30;;
31692;SDS011;37436;53.230;6.614;2023-02-05T17:20:28;42.67;;;5.75;;
31692;SDS011;37436;53.230;6.614;2023-02-05T17:25:23;51.17;;;5.32;;
31692;SDS011;37436;53.230;6.614;2023-02-05T17:27:50;43.17;;;5.60;;
31692;SDS011;37436;53.230;6.614;2023-02-05T17:30:16;54.22;;;5.60;;
31692;SDS011;37436;53.230;6.614;2023-02-05T17:32:46;37.03;;;5.97;;
31692;SDS011;37436;53.230;6.614;2023-02-05T17:35:18;42.17;;;4.78;;
31692;SDS011;37436;53.230;6.614;2023-02-05T17:37:48;46.47;;;6.07;;
31692;SDS011;37436;53.230;6.614;2023-02-05T17:40:16;35.28;;;5.28;;
31692;SDS011;37436;53.230;6.614;2023-02-05T17:42:43;44.22;;;5.15;;
31692;SDS011;37436;53.230;6.614;2023-02-05T17:45:15;45.90;;;5.03;;
31692;SDS011;37436;53.230;6.614;2023-02-05T17:47:42;38.80;;;5.00;;
31692;SDS011;37436;53.230;6.614;2023-02-05T17:50:09;47.22;;;5.55;;
31692;SDS011;37436;53.230;6.614;2023-02-05T17:52:39;41.00;;;5.10;;
31692;SDS011;37436;53.230;6.614;2023-02-05T17:55:06;40.92;;;5.85;;
31692;SDS011;37436;53.230;6.614;2023-02-05T17:57:37;52.30;;;6.07;;
31692;SDS011;37436;53.230;6.614;2023-02-05T18:00:04;53.15;;;5.53;;
31692;SDS011;37436;53.230;6.614;2023-02-05T18:05:18;35.33;;;4.43;;
31692;SDS011;37436;53.230;6.614;2023-02-05T18:07:48;37.67;;;5.78;;
31692;SDS011;37436;53.230;6.614;2023-02-05T18:10:18;54.03;;;7.60;;
31692;SDS011;37436;53.230;6.614;2023-02-05T18:12:53;38.38;;;5.57;;
31692;SDS011;37436;53.230;6.614;2023-02-05T18:15:20;61.63;;;7.87;;
31692;SDS011;37436;53.230;6.614;2023-02-05T18:17:54;53.90;;;7.05;;
31692;SDS011;37436;53.230;6.614;2023-02-05T18:20:20;36.55;;;6.28;;
31692;SDS011;37436;53.230;6.614;2023-02-05T18:22:47;61.63;;;8.95;;
31692;SDS011;37436;53.230;6.614;2023-02-05T18:25:28;49.17;;;7.90;;
31692;SDS011;37436;53.230;6.614;2023-02-05T18:27:55;52.80;;;9.02;;
31692;SDS011;37436;53.230;6.614;2023-02-05T18:30:21;78.85;;;9.57;;
31692;SDS011;37436;53.230;6.614;2023-02-05T18:32:47;45.92;;;7.40;;
31692;SDS011;37436;53.230;6.614;2023-02-05T18:35:13;67.82;;;11.73;;
31692;SDS011;37436;53.230;6.614;2023-02-05T18:37:40;46.13;;;8.05;;
31692;SDS011;37436;53.230;6.614;2023-02-05T18:40:07;52.35;;;7.13;;
31692;SDS011;37436;53.230;6.614;2023-02-05T18:42:33;36.72;;;6.32;;
31692;SDS011;37436;53.230;6.614;2023-02-05T18:45:00;51.42;;;7.30;;
31692;SDS011;37436;53.230;6.614;2023-02-05T18:47:26;55.05;;;7.57;;
31692;SDS011;37436;53.230;6.614;2023-02-05T18:49:52;54.55;;;8.00;;
31692;SDS011;37436;53.230;6.614;2023-02-05T18:52:18;39.45;;;6.63;;
31692;SDS011;37436;53.230;6.614;2023-02-05T18:54:47;58.70;;;7.00;;
31692;SDS011;37436;53.230;6.614;2023-02-05T18:57:13;55.28;;;6.63;;
31692;SDS011;37436;53.230;6.614;2023-02-05T18:59:39;36.17;;;5.68;;
31692;SDS011;37436;53.230;6.614;2023-02-05T19:02:08;49.15;;;6.78;;
31692;SDS011;37436;53.230;6.614;2023-02-05T19:04:35;44.55;;;6.65;;
31692;SDS011;37436;53.230;6.614;2023-02-05T19:07:01;48.85;;;6.43;;
31692;SDS011;37436;53.230;6.614;2023-02-05T19:09:27;50.38;;;6.25;;
31692;SDS011;37436;53.230;6.614;2023-02-05T19:11:53;51.05;;;7.82;;
31692;SDS011;37436;53.230;6.614;2023-02-05T19:14:20;61.60;;;8.82;;
31692;SDS011;37436;53.230;6.614;2023-02-05T19:16:48;57.60;;;10.85;;
31692;SDS011;37436;53.230;6.614;2023-02-05T19:19:15;49.83;;;8.55;;
31692;SDS011;37436;53.230;6.614;2023-02-05T19:21:44;61.28;;;8.82;;